createdAt,value
2022-08-26T00:00:02.926Z,0.00
2022-08-26T00:10:11.803Z,0.00
2022-08-26T00:20:18.515Z,0.00
2022-08-26T00:31:45.289Z,0.00
2022-08-26T00:41:50.276Z,0.00
2022-08-26T00:51:57.372Z,0.00
2022-08-26T01:02:02.795Z,0.00
2022-08-26T01:12:09.829Z,0.00
2022-08-26T01:22:16.495Z,0.00
2022-08-26T01:32:23.951Z,0.00
2022-08-26T01:42:29.676Z,0.00
2022-08-26T01:52:36.214Z,0.00
2022-08-26T02:02:41.550Z,0.00
2022-08-26T02:12:51.200Z,0.00
2022-08-26T02:22:56.829Z,0.00
2022-08-26T02:33:04.120Z,0.00
2022-08-26T02:43:09.745Z,0.00
2022-08-26T02:53:16.660Z,0.00
2022-08-26T03:03:27.377Z,0.00
2022-08-26T03:13:34.791Z,0.00
2022-08-26T03:23:47.852Z,0.00
2022-08-26T03:33:59.619Z,0.00
2022-08-26T03:44:05.391Z,0.00
2022-08-26T03:54:12.293Z,4.00
2022-08-26T04:04:17.916Z,24.00
2022-08-26T04:14:24.667Z,100.00
2022-08-26T04:24:30.344Z,236.00
2022-08-26T04:34:37.701Z,416.00
2022-08-26T04:44:45.290Z,632.00
2022-08-26T04:54:52.963Z,880.00
2022-08-26T05:04:58.711Z,1196.00
2022-08-26T05:15:07.633Z,1448.00
2022-08-26T05:25:13.132Z,1680.00
2022-08-26T05:35:20.840Z,1948.00
2022-08-26T05:45:28.822Z,2300.00
2022-08-26T05:55:36.057Z,3096.00
2022-08-26T06:05:44.843Z,3984.00
2022-08-26T06:15:52.539Z,4800.00
2022-08-26T06:25:59.231Z,5040.00
2022-08-26T06:36:06.867Z,4812.00
2022-08-26T06:46:12.452Z,5164.00
2022-08-26T06:56:18.334Z,5632.00
2022-08-26T07:06:25.438Z,5540.00
2022-08-26T07:16:32.752Z,5340.00
2022-08-26T07:26:39.007Z,4456.00
2022-08-26T07:36:50.457Z,5448.00
2022-08-26T07:46:56.035Z,6436.00
2022-08-26T07:57:08.354Z,5864.00
2022-08-26T08:07:15.186Z,6452.00
2022-08-26T08:17:29.695Z,9640.00
2022-08-26T08:27:35.594Z,11348.00
2022-08-26T08:37:42.699Z,13524.00
2022-08-26T08:47:49.298Z,12944.00
2022-08-26T08:57:57.002Z,13432.00
2022-08-26T09:08:11.333Z,10600.00
2022-08-26T09:18:19.365Z,10644.00
2022-08-26T09:28:25.121Z,11300.00
2022-08-26T09:38:32.652Z,12000.00
2022-08-26T09:48:41.077Z,12436.00
2022-08-26T09:58:49.239Z,13888.00
2022-08-26T10:08:55.111Z,14708.00
2022-08-26T10:19:03.108Z,15788.00
2022-08-26T10:29:11.989Z,18420.00
2022-08-26T10:39:18.241Z,16340.00
2022-08-26T10:49:27.004Z,18372.00
2022-08-26T10:59:34.470Z,82112.00
2022-08-26T11:09:43.290Z,84416.00
2022-08-26T11:20:00.909Z,85632.00
2022-08-26T11:30:01.318Z,82496.00
2022-08-26T11:40:08.720Z,57408.00
2022-08-26T11:50:14.371Z,48384.00
2022-08-26T12:00:22.391Z,61504.00
2022-08-26T12:10:29.502Z,8248.00
2022-08-26T12:20:35.134Z,6332.00
2022-08-26T12:30:43.175Z,45504.00
2022-08-26T12:40:49.636Z,61952.00
2022-08-26T12:50:57.429Z,67488.00
2022-08-26T13:01:03.520Z,21728.00
2022-08-26T13:11:10.792Z,21952.00
2022-08-26T13:21:16.371Z,14012.00
2022-08-26T13:31:27.062Z,10216.00
2022-08-26T13:41:32.962Z,18688.00
2022-08-26T13:51:41.080Z,22912.00
2022-08-26T14:01:53.783Z,20384.00
2022-08-26T14:12:02.838Z,15904.00
2022-08-26T14:22:09.294Z,19680.00
2022-08-26T14:32:16.381Z,23104.00
2022-08-26T14:42:24.910Z,10332.00
2022-08-26T14:52:30.715Z,7616.00
2022-08-26T15:02:36.813Z,1660.00
2022-08-26T15:12:43.183Z,560.00
2022-08-26T15:22:49.353Z,284.00
2022-08-26T15:32:58.341Z,272.00
2022-08-26T15:43:18.518Z,232.00
2022-08-26T15:53:16.446Z,240.00
2022-08-26T16:03:22.204Z,188.00
2022-08-26T16:13:30.398Z,152.00
2022-08-26T16:23:45.092Z,128.00
2022-08-26T16:33:51.711Z,124.00
2022-08-26T16:44:05.550Z,132.00
2022-08-26T16:54:11.777Z,128.00
2022-08-26T17:04:21.525Z,104.00
2022-08-26T17:14:27.698Z,88.00
2022-08-26T17:24:34.065Z,72.00
2022-08-26T17:34:40.316Z,60.00
2022-08-26T17:44:46.452Z,44.00
2022-08-26T17:54:52.601Z,28.00
2022-08-26T18:05:00.045Z,20.00
2022-08-26T18:15:06.509Z,12.00
2022-08-26T18:25:14.195Z,4.00
2022-08-26T18:35:20.017Z,0.00
2022-08-26T18:45:26.986Z,0.00
2022-08-26T18:55:32.958Z,0.00
2022-08-26T19:07:10.748Z,0.00
2022-08-26T19:17:14.929Z,0.00
2022-08-26T19:27:22.561Z,0.00
2022-08-26T19:37:28.282Z,0.00
2022-08-26T19:48:55.845Z,0.00
2022-08-26T19:59:01.619Z,0.00
2022-08-26T20:09:09.839Z,0.00
2022-08-26T20:19:16.067Z,0.00
2022-08-26T20:29:23.920Z,0.00
2022-08-26T20:39:29.831Z,0.00
2022-08-26T20:49:37.654Z,0.00
2022-08-26T20:59:44.071Z,0.00
2022-08-26T21:09:51.839Z,0.00
2022-08-26T21:19:58.605Z,0.00
2022-08-26T21:30:05.849Z,0.00
2022-08-26T21:40:11.655Z,0.00
2022-08-26T21:50:18.070Z,0.00
2022-08-26T22:00:24.229Z,0.00
2022-08-26T22:10:32.107Z,0.00
2022-08-26T22:20:37.702Z,0.00
2022-08-26T22:30:49.614Z,0.00
2022-08-26T22:40:55.397Z,0.00
2022-08-26T22:51:02.655Z,0.00
2022-08-26T23:01:08.534Z,0.00
2022-08-26T23:11:15.885Z,0.00
2022-08-26T23:21:21.640Z,0.00
2022-08-26T23:31:29.155Z,0.00
2022-08-26T23:41:34.997Z,0.00
2022-08-26T23:51:42.334Z,0.00
